sensor_id;sensor_type;location;lat;lon;timestamp;P1;durP1;ratioP1;P2;durP2;ratioP2
54935;SDS011;40838;50.676;7.838;2023-03-14T00:00:49;2.83;;;1.48;;
54935;SDS011;40838;50.676;7.838;2023-03-14T00:03:17;3.42;;;1.10;;
54935;SDS011;40838;50.676;7.838;2023-03-14T00:05:44;6.60;;;1.42;;
54935;SDS011;40838;50.676;7.838;2023-03-14T00:08:10;3.03;;;1.35;;
54935;SDS011;40838;50.676;7.838;2023-03-14T00:10:37;5.28;;;1.48;;
54935;SDS011;40838;50.676;7.838;2023-03-14T00:13:05;2.05;;;0.88;;
54935;SDS011;40838;50.676;7.838;2023-03-14T00:15:32;7.03;;;1.35;;
54935;SDS011;40838;50.676;7.838;2023-03-14T00:17:59;6.13;;;1.50;;
54935;SDS011;40838;50.676;7.838;2023-03-14T00:20:28;4.03;;;1.30;;
54935;SDS011;40838;50.676;7.838;2023-03-14T00:22:55;6.32;;;1.50;;
54935;SDS011;40838;50.676;7.838;2023-03-14T00:25:22;4.63;;;1.40;;
54935;SDS011;40838;50.676;7.838;2023-03-14T00:27:50;6.82;;;2.03;;
54935;SDS011;40838;50.676;7.838;2023-03-14T00:30:17;5.43;;;1.50;;
54935;SDS011;40838;50.676;7.838;2023-03-14T00:32:45;4.20;;;1.35;;
54935;SDS011;40838;50.676;7.838;2023-03-14T00:35:12;5.28;;;1.50;;
54935;SDS011;40838;50.676;7.838;2023-03-14T00:37:40;6.13;;;2.13;;
54935;SDS011;40838;50.676;7.838;2023-03-14T00:40:07;8.32;;;2.17;;
54935;SDS011;40838;50.676;7.838;2023-03-14T00:42:35;8.48;;;1.73;;
54935;SDS011;40838;50.676;7.838;2023-03-14T00:45:02;12.82;;;1.90;;
54935;SDS011;40838;50.676;7.838;2023-03-14T00:47:34;5.20;;;1.33;;
54935;SDS011;40838;50.676;7.838;2023-03-14T00:50:00;11.55;;;2.38;;
54935;SDS011;40838;50.676;7.838;2023-03-14T00:52:27;9.90;;;2.45;;
54935;SDS011;40838;50.676;7.838;2023-03-14T00:54:55;14.73;;;2.55;;
54935;SDS011;40838;50.676;7.838;2023-03-14T00:57:23;9.70;;;2.00;;
54935;SDS011;40838;50.676;7.838;2023-03-14T00:59:50;7.45;;;2.33;;
54935;SDS011;40838;50.676;7.838;2023-03-14T01:02:17;7.47;;;2.00;;
54935;SDS011;40838;50.676;7.838;2023-03-14T01:04:46;13.70;;;2.33;;
54935;SDS011;40838;50.676;7.838;2023-03-14T01:07:14;11.88;;;2.13;;
54935;SDS011;40838;50.676;7.838;2023-03-14T01:09:41;8.48;;;2.40;;
54935;SDS011;40838;50.676;7.838;2023-03-14T01:12:09;6.10;;;1.63;;
54935;SDS011;40838;50.676;7.838;2023-03-14T01:14:36;7.10;;;1.85;;
54935;SDS011;40838;50.676;7.838;2023-03-14T01:17:03;10.20;;;2.38;;
54935;SDS011;40838;50.676;7.838;2023-03-14T01:19:31;13.52;;;2.60;;
54935;SDS011;40838;50.676;7.838;2023-03-14T01:21:58;13.52;;;2.03;;
54935;SDS011;40838;50.676;7.838;2023-03-14T01:24:25;6.60;;;1.70;;
54935;SDS011;40838;50.676;7.838;2023-03-14T01:26:52;9.95;;;2.42;;
54935;SDS011;40838;50.676;7.838;2023-03-14T01:29:23;9.57;;;1.80;;
54935;SDS011;40838;50.676;7.838;2023-03-14T01:31:50;10.80;;;1.83;;
54935;SDS011;40838;50.676;7.838;2023-03-14T01:34:17;6.93;;;2.10;;
54935;SDS011;40838;50.676;7.838;2023-03-14T01:36:44;8.50;;;1.58;;
54935;SDS011;40838;50.676;7.838;2023-03-14T01:39:11;8.55;;;1.83;;
54935;SDS011;40838;50.676;7.838;2023-03-14T01:41:39;7.97;;;2.38;;
54935;SDS011;40838;50.676;7.838;2023-03-14T01:44:08;6.88;;;1.80;;
54935;SDS011;40838;50.676;7.838;2023-03-14T01:46:38;12.00;;;2.47;;
54935;SDS011;40838;50.676;7.838;2023-03-14T01:49:13;8.73;;;1.83;;
54935;SDS011;40838;50.676;7.838;2023-03-14T01:51:51;12.75;;;1.98;;
54935;SDS011;40838;50.676;7.838;2023-03-14T01:54:23;8.18;;;1.92;;
54935;SDS011;40838;50.676;7.838;2023-03-14T01:56:55;5.00;;;1.52;;
54935;SDS011;40838;50.676;7.838;2023-03-14T01:59:29;10.02;;;2.17;;
54935;SDS011;40838;50.676;7.838;2023-03-14T02:02:00;11.77;;;2.08;;
54935;SDS011;40838;50.676;7.838;2023-03-14T02:04:32;11.05;;;1.92;;
54935;SDS011;40838;50.676;7.838;2023-03-14T02:07:05;10.20;;;2.10;;
54935;SDS011;40838;50.676;7.838;2023-03-14T02:09:46;12.93;;;2.63;;
54935;SDS011;40838;50.676;7.838;2023-03-14T02:12:21;5.82;;;1.38;;
54935;SDS011;40838;50.676;7.838;2023-03-14T02:15:10;5.15;;;1.63;;
54935;SDS011;40838;50.676;7.838;2023-03-14T02:17:51;9.38;;;2.00;;
54935;SDS011;40838;50.676;7.838;2023-03-14T02:20:28;15.02;;;2.83;;
54935;SDS011;40838;50.676;7.838;2023-03-14T02:23:01;15.45;;;2.47;;
54935;SDS011;40838;50.676;7.838;2023-03-14T02:25:31;7.68;;;2.10;;
54935;SDS011;40838;50.676;7.838;2023-03-14T02:28:06;10.55;;;2.25;;
54935;SDS011;40838;50.676;7.838;2023-03-14T02:30:35;12.90;;;3.65;;
54935;SDS011;40838;50.676;7.838;2023-03-14T02:33:04;8.52;;;1.85;;
54935;SDS011;40838;50.676;7.838;2023-03-14T02:35:35;11.90;;;2.75;;
54935;SDS011;40838;50.676;7.838;2023-03-14T02:38:10;10.05;;;2.40;;
54935;SDS011;40838;50.676;7.838;2023-03-14T02:40:44;13.95;;;3.28;;
54935;SDS011;40838;50.676;7.838;2023-03-14T02:43:13;9.70;;;2.63;;
54935;SDS011;40838;50.676;7.838;2023-03-14T02:45:46;9.40;;;2.63;;
54935;SDS011;40838;50.676;7.838;2023-03-14T02:48:18;14.88;;;2.65;;
54935;SDS011;40838;50.676;7.838;2023-03-14T02:50:47;18.30;;;3.67;;
54935;SDS011;40838;50.676;7.838;2023-03-14T02:53:17;14.48;;;2.00;;
54935;SDS011;40838;50.676;7.838;2023-03-14T02:55:49;11.15;;;2.20;;
54935;SDS011;40838;50.676;7.838;2023-03-14T02:58:20;15.98;;;2.53;;
54935;SDS011;40838;50.676;7.838;2023-03-14T03:00:52;8.40;;;2.25;;
54935;SDS011;40838;50.676;7.838;2023-03-14T03:03:23;10.85;;;2.28;;
54935;SDS011;40838;50.676;7.838;2023-03-14T03:05:50;10.73;;;2.25;;
54935;SDS011;40838;50.676;7.838;2023-03-14T03:08:18;13.52;;;1.65;;
54935;SDS011;40838;50.676;7.838;2023-03-14T03:10:47;12.63;;;2.60;;
54935;SDS011;40838;50.676;7.838;2023-03-14T03:13:14;12.40;;;3.28;;
54935;SDS011;40838;50.676;7.838;2023-03-14T03:15:45;10.57;;;2.08;;
54935;SDS011;40838;50.676;7.838;2023-03-14T03:18:12;6.30;;;1.80;;
54935;SDS011;40838;50.676;7.838;2023-03-14T03:20:41;14.75;;;1.70;;
54935;SDS011;40838;50.676;7.838;2023-03-14T03:23:08;11.60;;;2.72;;
54935;SDS011;40838;50.676;7.838;2023-03-14T03:25:37;10.80;;;2.25;;
54935;SDS011;40838;50.676;7.838;2023-03-14T03:28:04;9.18;;;2.67;;
54935;SDS011;40838;50.676;7.838;2023-03-14T03:30:37;7.75;;;2.38;;
54935;SDS011;40838;50.676;7.838;2023-03-14T03:33:06;7.07;;;1.98;;
54935;SDS011;40838;50.676;7.838;2023-03-14T03:35:40;11.10;;;1.88;;
54935;SDS011;40838;50.676;7.838;2023-03-14T03:38:10;12.18;;;2.10;;
54935;SDS011;40838;50.676;7.838;2023-03-14T03:40:38;12.00;;;3.15;;
54935;SDS011;40838;50.676;7.838;2023-03-14T03:43:07;8.88;;;2.05;;
54935;SDS011;40838;50.676;7.838;2023-03-14T03:45:37;11.32;;;2.33;;
54935;SDS011;40838;50.676;7.838;2023-03-14T03:48:06;11.52;;;1.85;;
54935;SDS011;40838;50.676;7.838;2023-03-14T03:50:34;10.50;;;1.73;;
54935;SDS011;40838;50.676;7.838;2023-03-14T03:53:01;13.98;;;2.22;;
54935;SDS011;40838;50.676;7.838;2023-03-14T03:55:28;6.00;;;1.67;;
54935;SDS011;40838;50.676;7.838;2023-03-14T03:57:55;13.98;;;2.40;;
54935;SDS011;40838;50.676;7.838;2023-03-14T04:00:22;7.82;;;1.50;;
54935;SDS011;40838;50.676;7.838;2023-03-14T04:02:49;19.55;;;3.70;;
54935;SDS011;40838;50.676;7.838;2023-03-14T04:05:35;7.55;;;1.52;;
54935;SDS011;40838;50.676;7.838;2023-03-14T04:08:07;6.50;;;1.63;;
54935;SDS011;40838;50.676;7.838;2023-03-14T04:10:34;7.07;;;1.48;;
54935;SDS011;40838;50.676;7.838;2023-03-14T04:13:16;6.78;;;2.15;;
54935;SDS011;40838;50.676;7.838;2023-03-14T04:15:48;6.32;;;1.30;;
54935;SDS011;40838;50.676;7.838;2023-03-14T04:18:21;5.50;;;1.20;;
54935;SDS011;40838;50.676;7.838;2023-03-14T04:20:52;3.28;;;1.50;;
54935;SDS011;40838;50.676;7.838;2023-03-14T04:23:24;6.40;;;1.50;;
54935;SDS011;40838;50.676;7.838;2023-03-14T04:25:51;8.35;;;1.42;;
54935;SDS011;40838;50.676;7.838;2023-03-14T04:28:20;3.90;;;0.95;;
54935;SDS011;40838;50.676;7.838;2023-03-14T04:30:47;3.78;;;1.10;;
54935;SDS011;40838;50.676;7.838;2023-03-14T04:33:19;3.05;;;1.10;;
54935;SDS011;40838;50.676;7.838;2023-03-14T04:35:54;5.32;;;1.17;;
54935;SDS011;40838;50.676;7.838;2023-03-14T04:38:21;4.63;;;1.05;;
54935;SDS011;40838;50.676;7.838;2023-03-14T04:40:49;3.90;;;1.27;;
54935;SDS011;40838;50.676;7.838;2023-03-14T04:43:18;4.85;;;1.10;;
54935;SDS011;40838;50.676;7.838;2023-03-14T04:45:51;3.33;;;1.63;;
54935;SDS011;40838;50.676;7.838;2023-03-14T04:48:19;6.55;;;1.30;;
54935;SDS011;40838;50.676;7.838;2023-03-14T04:50:46;4.13;;;0.90;;
54935;SDS011;40838;50.676;7.838;2023-03-14T04:53:16;3.20;;;1.00;;
54935;SDS011;40838;50.676;7.838;2023-03-14T04:55:47;5.18;;;1.70;;
54935;SDS011;40838;50.676;7.838;2023-03-14T04:58:15;5.35;;;1.05;;
54935;SDS011;40838;50.676;7.838;2023-03-14T05:00:42;5.45;;;0.70;;
54935;SDS011;40838;50.676;7.838;2023-03-14T05:03:35;2.75;;;0.68;;
54935;SDS011;40838;50.676;7.838;2023-03-14T05:06:17;3.72;;;0.73;;
54935;SDS011;40838;50.676;7.838;2023-03-14T05:09:01;3.20;;;0.82;;
54935;SDS011;40838;50.676;7.838;2023-03-14T05:11:51;4.38;;;0.93;;
54935;SDS011;40838;50.676;7.838;2023-03-14T05:14:37;2.95;;;0.70;;
54935;SDS011;40838;50.676;7.838;2023-03-14T05:17:27;2.90;;;0.88;;
54935;SDS011;40838;50.676;7.838;2023-03-14T05:20:17;2.72;;;0.60;;
54935;SDS011;40838;50.676;7.838;2023-03-14T05:22:53;2.25;;;1.08;;
54935;SDS011;40838;50.676;7.838;2023-03-14T05:25:44;3.38;;;0.88;;
54935;SDS011;40838;50.676;7.838;2023-03-14T05:28:13;4.70;;;0.88;;
54935;SDS011;40838;50.676;7.838;2023-03-14T05:31:00;3.58;;;0.70;;
54935;SDS011;40838;50.676;7.838;2023-03-14T05:33:48;3.10;;;0.70;;
54935;SDS011;40838;50.676;7.838;2023-03-14T05:36:51;3.15;;;0.68;;
54935;SDS011;40838;50.676;7.838;2023-03-14T05:39:34;3.15;;;0.52;;
54935;SDS011;40838;50.676;7.838;2023-03-14T05:42:21;0.47;;;0.40;;
54935;SDS011;40838;50.676;7.838;2023-03-14T05:44:50;2.88;;;0.95;;
54935;SDS011;40838;50.676;7.838;2023-03-14T05:47:36;1.95;;;0.55;;
54935;SDS011;40838;50.676;7.838;2023-03-14T05:50:14;0.75;;;0.28;;
54935;SDS011;40838;50.676;7.838;2023-03-14T05:52:52;1.38;;;0.43;;
54935;SDS011;40838;50.676;7.838;2023-03-14T05:55:50;0.43;;;0.40;;
54935;SDS011;40838;50.676;7.838;2023-03-14T05:58:29;1.38;;;0.50;;
54935;SDS011;40838;50.676;7.838;2023-03-14T06:01:18;1.42;;;0.40;;
54935;SDS011;40838;50.676;7.838;2023-03-14T06:04:08;3.30;;;0.60;;
54935;SDS011;40838;50.676;7.838;2023-03-14T06:06:36;3.95;;;0.52;;
54935;SDS011;40838;50.676;7.838;2023-03-14T06:09:04;1.08;;;0.50;;
54935;SDS011;40838;50.676;7.838;2023-03-14T06:11:33;2.97;;;0.57;;
54935;SDS011;40838;50.676;7.838;2023-03-14T06:14:02;0.88;;;0.50;;
54935;SDS011;40838;50.676;7.838;2023-03-14T06:16:29;1.83;;;0.30;;
54935;SDS011;40838;50.676;7.838;2023-03-14T06:18:58;2.60;;;1.08;;
54935;SDS011;40838;50.676;7.838;2023-03-14T06:21:26;2.00;;;0.63;;
54935;SDS011;40838;50.676;7.838;2023-03-14T06:23:53;0.65;;;0.40;;
54935;SDS011;40838;50.676;7.838;2023-03-14T06:26:21;4.88;;;1.70;;
54935;SDS011;40838;50.676;7.838;2023-03-14T06:28:48;3.88;;;0.70;;
54935;SDS011;40838;50.676;7.838;2023-03-14T06:31:17;2.35;;;0.40;;
54935;SDS011;40838;50.676;7.838;2023-03-14T06:33:51;0.98;;;0.40;;
54935;SDS011;40838;50.676;7.838;2023-03-14T06:36:20;5.63;;;1.15;;
54935;SDS011;40838;50.676;7.838;2023-03-14T06:38:48;0.43;;;0.40;;
54935;SDS011;40838;50.676;7.838;2023-03-14T06:41:16;2.05;;;0.45;;
54935;SDS011;40838;50.676;7.838;2023-03-14T06:43:45;1.80;;;0.50;;
54935;SDS011;40838;50.676;7.838;2023-03-14T06:46:13;1.98;;;0.68;;
54935;SDS011;40838;50.676;7.838;2023-03-14T06:48:43;3.63;;;0.40;;
54935;SDS011;40838;50.676;7.838;2023-03-14T06:51:11;0.70;;;0.50;;
54935;SDS011;40838;50.676;7.838;2023-03-14T06:53:37;2.15;;;0.40;;
54935;SDS011;40838;50.676;7.838;2023-03-14T06:56:07;3.25;;;0.52;;
54935;SDS011;40838;50.676;7.838;2023-03-14T06:58:35;1.20;;;0.40;;
54935;SDS011;40838;50.676;7.838;2023-03-14T07:01:05;4.72;;;0.70;;
54935;SDS011;40838;50.676;7.838;2023-03-14T07:03:38;0.97;;;0.40;;
54935;SDS011;40838;50.676;7.838;2023-03-14T07:06:07;1.15;;;0.60;;
54935;SDS011;40838;50.676;7.838;2023-03-14T07:08:34;4.88;;;1.17;;
54935;SDS011;40838;50.676;7.838;2023-03-14T07:11:01;2.65;;;1.00;;
54935;SDS011;40838;50.676;7.838;2023-03-14T07:13:28;3.38;;;0.50;;
54935;SDS011;40838;50.676;7.838;2023-03-14T07:16:06;3.03;;;0.60;;
54935;SDS011;40838;50.676;7.838;2023-03-14T07:18:35;2.30;;;0.45;;
54935;SDS011;40838;50.676;7.838;2023-03-14T07:21:04;1.75;;;0.47;;
54935;SDS011;40838;50.676;7.838;2023-03-14T07:23:33;0.65;;;0.50;;
54935;SDS011;40838;50.676;7.838;2023-03-14T07:26:00;1.17;;;0.50;;
54935;SDS011;40838;50.676;7.838;2023-03-14T07:28:28;2.20;;;0.55;;
54935;SDS011;40838;50.676;7.838;2023-03-14T07:31:03;1.52;;;0.45;;
54935;SDS011;40838;50.676;7.838;2023-03-14T07:33:31;2.17;;;0.60;;
54935;SDS011;40838;50.676;7.838;2023-03-14T07:36:00;1.48;;;0.63;;
54935;SDS011;40838;50.676;7.838;2023-03-14T07:38:27;4.03;;;0.82;;
54935;SDS011;40838;50.676;7.838;2023-03-14T07:41:14;1.63;;;0.80;;
54935;SDS011;40838;50.676;7.838;2023-03-14T07:43:59;1.05;;;0.47;;
54935;SDS011;40838;50.676;7.838;2023-03-14T07:46:26;2.33;;;0.68;;
54935;SDS011;40838;50.676;7.838;2023-03-14T07:48:53;0.98;;;0.40;;
54935;SDS011;40838;50.676;7.838;2023-03-14T07:51:20;3.95;;;1.50;;
54935;SDS011;40838;50.676;7.838;2023-03-14T07:53:47;2.17;;;0.60;;
54935;SDS011;40838;50.676;7.838;2023-03-14T07:56:15;0.80;;;0.70;;
54935;SDS011;40838;50.676;7.838;2023-03-14T07:58:42;1.65;;;0.50;;
54935;SDS011;40838;50.676;7.838;2023-03-14T08:01:09;3.53;;;0.50;;
54935;SDS011;40838;50.676;7.838;2023-03-14T08:03:35;1.25;;;0.50;;
54935;SDS011;40838;50.676;7.838;2023-03-14T08:06:02;0.85;;;0.52;;
54935;SDS011;40838;50.676;7.838;2023-03-14T08:08:29;1.83;;;0.60;;
54935;SDS011;40838;50.676;7.838;2023-03-14T08:11:01;0.77;;;0.38;;
54935;SDS011;40838;50.676;7.838;2023-03-14T08:13:30;1.25;;;0.50;;
54935;SDS011;40838;50.676;7.838;2023-03-14T08:15:59;1.17;;;0.50;;
54935;SDS011;40838;50.676;7.838;2023-03-14T08:18:25;3.15;;;0.50;;
54935;SDS011;40838;50.676;7.838;2023-03-14T08:20:52;2.60;;;0.63;;
54935;SDS011;40838;50.676;7.838;2023-03-14T08:23:19;1.42;;;0.57;;
54935;SDS011;40838;50.676;7.838;2023-03-14T08:25:48;1.45;;;0.50;;
54935;SDS011;40838;50.676;7.838;2023-03-14T08:28:15;0.85;;;0.43;;
54935;SDS011;40838;50.676;7.838;2023-03-14T08:30:43;2.88;;;0.60;;
54935;SDS011;40838;50.676;7.838;2023-03-14T08:33:10;1.65;;;0.60;;
54935;SDS011;40838;50.676;7.838;2023-03-14T08:35:37;1.25;;;0.65;;
54935;SDS011;40838;50.676;7.838;2023-03-14T08:38:04;1.60;;;0.65;;
54935;SDS011;40838;50.676;7.838;2023-03-14T08:40:31;0.90;;;0.50;;
54935;SDS011;40838;50.676;7.838;2023-03-14T08:42:58;1.45;;;0.55;;
54935;SDS011;40838;50.676;7.838;2023-03-14T08:45:25;3.80;;;0.90;;
54935;SDS011;40838;50.676;7.838;2023-03-14T08:47:53;0.65;;;0.50;;
54935;SDS011;40838;50.676;7.838;2023-03-14T08:50:20;1.38;;;0.47;;
54935;SDS011;40838;50.676;7.838;2023-03-14T08:52:48;0.88;;;0.30;;
54935;SDS011;40838;50.676;7.838;2023-03-14T08:55:15;1.38;;;0.73;;
54935;SDS011;40838;50.676;7.838;2023-03-14T08:57:42;1.48;;;0.40;;
54935;SDS011;40838;50.676;7.838;2023-03-14T09:00:09;2.90;;;0.70;;
54935;SDS011;40838;50.676;7.838;2023-03-14T09:02:39;3.13;;;0.70;;
54935;SDS011;40838;50.676;7.838;2023-03-14T09:05:08;0.68;;;0.52;;
54935;SDS011;40838;50.676;7.838;2023-03-14T09:07:35;0.70;;;0.40;;
54935;SDS011;40838;50.676;7.838;2023-03-14T09:10:02;1.88;;;0.50;;
54935;SDS011;40838;50.676;7.838;2023-03-14T09:12:30;0.90;;;0.20;;
54935;SDS011;40838;50.676;7.838;2023-03-14T09:14:56;0.35;;;0.20;;
54935;SDS011;40838;50.676;7.838;2023-03-14T09:17:23;0.40;;;0.40;;
54935;SDS011;40838;50.676;7.838;2023-03-14T09:19:50;1.55;;;0.60;;
54935;SDS011;40838;50.676;7.838;2023-03-14T09:22:18;0.43;;;0.43;;
54935;SDS011;40838;50.676;7.838;2023-03-14T09:24:45;0.65;;;0.45;;
54935;SDS011;40838;50.676;7.838;2023-03-14T09:27:12;2.80;;;0.50;;
54935;SDS011;40838;50.676;7.838;2023-03-14T09:29:39;0.40;;;0.40;;
54935;SDS011;40838;50.676;7.838;2023-03-14T09:32:06;2.42;;;0.60;;
54935;SDS011;40838;50.676;7.838;2023-03-14T09:34:33;0.38;;;0.25;;
54935;SDS011;40838;50.676;7.838;2023-03-14T09:37:00;0.40;;;0.40;;
54935;SDS011;40838;50.676;7.838;2023-03-14T09:39:28;0.30;;;0.30;;
54935;SDS011;40838;50.676;7.838;2023-03-14T09:41:55;3.15;;;0.20;;
54935;SDS011;40838;50.676;7.838;2023-03-14T09:44:28;0.40;;;0.40;;
54935;SDS011;40838;50.676;7.838;2023-03-14T09:46:58;2.67;;;0.65;;
54935;SDS011;40838;50.676;7.838;2023-03-14T09:49:30;1.05;;;0.40;;
54935;SDS011;40838;50.676;7.838;2023-03-14T09:51:59;0.30;;;0.30;;
54935;SDS011;40838;50.676;7.838;2023-03-14T09:54:34;0.70;;;0.50;;
54935;SDS011;40838;50.676;7.838;2023-03-14T09:57:03;1.00;;;0.47;;
54935;SDS011;40838;50.676;7.838;2023-03-14T09:59:32;1.50;;;0.75;;
54935;SDS011;40838;50.676;7.838;2023-03-14T10:02:04;0.60;;;0.60;;
54935;SDS011;40838;50.676;7.838;2023-03-14T10:04:40;0.93;;;0.47;;
54935;SDS011;40838;50.676;7.838;2023-03-14T10:07:10;0.50;;;0.40;;
54935;SDS011;40838;50.676;7.838;2023-03-14T10:09:43;0.65;;;0.63;;
54935;SDS011;40838;50.676;7.838;2023-03-14T10:12:10;0.65;;;0.60;;
54935;SDS011;40838;50.676;7.838;2023-03-14T10:14:44;0.40;;;0.38;;
54935;SDS011;40838;50.676;7.838;2023-03-14T10:17:13;1.45;;;0.38;;
54935;SDS011;40838;50.676;7.838;2023-03-14T10:19:50;0.50;;;0.40;;
54935;SDS011;40838;50.676;7.838;2023-03-14T10:22:18;2.33;;;0.55;;
54935;SDS011;40838;50.676;7.838;2023-03-14T10:24:49;0.52;;;0.50;;
54935;SDS011;40838;50.676;7.838;2023-03-14T10:27:19;1.40;;;0.60;;
54935;SDS011;40838;50.676;7.838;2023-03-14T10:29:52;2.85;;;1.10;;
54935;SDS011;40838;50.676;7.838;2023-03-14T10:32:20;1.55;;;0.30;;
54935;SDS011;40838;50.676;7.838;2023-03-14T10:35:03;1.90;;;0.50;;
54935;SDS011;40838;50.676;7.838;2023-03-14T10:37:52;1.63;;;0.50;;
54935;SDS011;40838;50.676;7.838;2023-03-14T10:40:26;2.50;;;0.30;;
54935;SDS011;40838;50.676;7.838;2023-03-14T10:42:55;0.20;;;0.20;;
54935;SDS011;40838;50.676;7.838;2023-03-14T10:45:35;1.17;;;0.50;;
54935;SDS011;40838;50.676;7.838;2023-03-14T10:48:15;0.90;;;0.38;;
54935;SDS011;40838;50.676;7.838;2023-03-14T10:50:49;0.57;;;0.50;;
54935;SDS011;40838;50.676;7.838;2023-03-14T10:53:21;0.40;;;0.40;;
54935;SDS011;40838;50.676;7.838;2023-03-14T10:55:49;0.70;;;0.70;;
54935;SDS011;40838;50.676;7.838;2023-03-14T10:58:23;0.60;;;0.60;;
54935;SDS011;40838;50.676;7.838;2023-03-14T11:00:58;0.50;;;0.50;;
54935;SDS011;40838;50.676;7.838;2023-03-14T11:03:31;0.50;;;0.50;;
54935;SDS011;40838;50.676;7.838;2023-03-14T11:06:03;1.17;;;0.40;;
54935;SDS011;40838;50.676;7.838;2023-03-14T11:08:38;0.73;;;0.60;;
54935;SDS011;40838;50.676;7.838;2023-03-14T11:11:16;0.75;;;0.40;;
54935;SDS011;40838;50.676;7.838;2023-03-14T11:13:50;0.35;;;0.35;;
54935;SDS011;40838;50.676;7.838;2023-03-14T11:16:29;0.40;;;0.40;;
54935;SDS011;40838;50.676;7.838;2023-03-14T11:19:13;0.55;;;0.55;;
54935;SDS011;40838;50.676;7.838;2023-03-14T11:21:50;1.95;;;0.82;;
54935;SDS011;40838;50.676;7.838;2023-03-14T11:24:30;0.65;;;0.57;;
54935;SDS011;40838;50.676;7.838;2023-03-14T11:27:17;3.05;;;0.80;;
54935;SDS011;40838;50.676;7.838;2023-03-14T11:29:51;1.00;;;1.00;;
54935;SDS011;40838;50.676;7.838;2023-03-14T11:32:24;1.20;;;1.10;;
54935;SDS011;40838;50.676;7.838;2023-03-14T11:34:58;4.00;;;1.65;;
54935;SDS011;40838;50.676;7.838;2023-03-14T11:37:32;1.10;;;1.00;;
54935;SDS011;40838;50.676;7.838;2023-03-14T11:40:03;3.28;;;1.20;;
54935;SDS011;40838;50.676;7.838;2023-03-14T11:42:36;4.32;;;1.50;;
54935;SDS011;40838;50.676;7.838;2023-03-14T11:45:10;1.38;;;1.27;;
54935;SDS011;40838;50.676;7.838;2023-03-14T11:47:42;3.33;;;2.25;;
54935;SDS011;40838;50.676;7.838;2023-03-14T11:50:14;2.05;;;1.83;;
54935;SDS011;40838;50.676;7.838;2023-03-14T11:52:45;1.88;;;1.77;;
54935;SDS011;40838;50.676;7.838;2023-03-14T11:55:17;2.65;;;1.95;;
54935;SDS011;40838;50.676;7.838;2023-03-14T11:57:53;2.05;;;1.52;;
54935;SDS011;40838;50.676;7.838;2023-03-14T12:00:25;1.65;;;1.55;;
54935;SDS011;40838;50.676;7.838;2023-03-14T12:02:53;3.22;;;1.67;;
54935;SDS011;40838;50.676;7.838;2023-03-14T12:05:29;1.63;;;1.53;;
54935;SDS011;40838;50.676;7.838;2023-03-14T12:11:13;1.85;;;1.60;;
54935;SDS011;40838;50.676;7.838;2023-03-14T12:13:48;1.38;;;1.25;;
54935;SDS011;40838;50.676;7.838;2023-03-14T12:16:27;1.00;;;1.00;;
54935;SDS011;40838;50.676;7.838;2023-03-14T12:19:13;2.75;;;2.05;;
54935;SDS011;40838;50.676;7.838;2023-03-14T12:21:55;1.63;;;1.33;;
54935;SDS011;40838;50.676;7.838;2023-03-14T12:24:27;3.17;;;1.80;;
54935;SDS011;40838;50.676;7.838;2023-03-14T12:26:56;2.58;;;1.95;;
54935;SDS011;40838;50.676;7.838;2023-03-14T12:29:27;2.45;;;2.15;;
54935;SDS011;40838;50.676;7.838;2023-03-14T12:32:12;3.45;;;2.00;;
54935;SDS011;40838;50.676;7.838;2023-03-14T12:34:49;2.60;;;2.33;;
54935;SDS011;40838;50.676;7.838;2023-03-14T12:37:18;2.42;;;2.08;;
54935;SDS011;40838;50.676;7.838;2023-03-14T12:39:55;20.08;;;4.45;;
54935;SDS011;40838;50.676;7.838;2023-03-14T12:42:38;2.50;;;2.17;;
54935;SDS011;40838;50.676;7.838;2023-03-14T12:45:21;3.00;;;2.10;;
54935;SDS011;40838;50.676;7.838;2023-03-14T12:47:52;3.05;;;1.83;;
54935;SDS011;40838;50.676;7.838;2023-03-14T12:50:24;3.05;;;1.80;;
54935;SDS011;40838;50.676;7.838;2023-03-14T12:56:00;1.40;;;1.20;;
54935;SDS011;40838;50.676;7.838;2023-03-14T12:58:36;3.40;;;0.93;;
54935;SDS011;40838;50.676;7.838;2023-03-14T13:01:16;1.23;;;1.08;;
54935;SDS011;40838;50.676;7.838;2023-03-14T13:03:46;0.85;;;0.85;;
54935;SDS011;40838;50.676;7.838;2023-03-14T13:12:02;3.88;;;1.20;;
54935;SDS011;40838;50.676;7.838;2023-03-14T13:14:35;1.98;;;1.23;;
54935;SDS011;40838;50.676;7.838;2023-03-14T13:17:10;1.42;;;1.33;;
54935;SDS011;40838;50.676;7.838;2023-03-14T13:19:38;2.67;;;1.67;;
54935;SDS011;40838;50.676;7.838;2023-03-14T13:22:06;4.72;;;1.98;;
54935;SDS011;40838;50.676;7.838;2023-03-14T13:24:43;2.80;;;2.47;;
54935;SDS011;40838;50.676;7.838;2023-03-14T13:27:14;4.38;;;2.92;;
54935;SDS011;40838;50.676;7.838;2023-03-14T13:29:44;5.78;;;2.40;;
54935;SDS011;40838;50.676;7.838;2023-03-14T13:32:16;4.65;;;3.40;;
54935;SDS011;40838;50.676;7.838;2023-03-14T13:37:16;4.35;;;2.80;;
54935;SDS011;40838;50.676;7.838;2023-03-14T13:39:43;3.03;;;2.83;;
54935;SDS011;40838;50.676;7.838;2023-03-14T13:42:15;3.05;;;2.72;;
54935;SDS011;40838;50.676;7.838;2023-03-14T13:44:43;4.50;;;3.28;;
54935;SDS011;40838;50.676;7.838;2023-03-14T13:47:14;3.88;;;3.25;;
54935;SDS011;40838;50.676;7.838;2023-03-14T13:49:43;3.35;;;3.05;;
54935;SDS011;40838;50.676;7.838;2023-03-14T13:52:23;9.27;;;3.60;;
54935;SDS011;40838;50.676;7.838;2023-03-14T13:54:54;5.60;;;3.40;;
54935;SDS011;40838;50.676;7.838;2023-03-14T13:57:21;5.05;;;3.35;;
54935;SDS011;40838;50.676;7.838;2023-03-14T14:00:00;6.75;;;3.75;;
54935;SDS011;40838;50.676;7.838;2023-03-14T14:02:32;17.90;;;10.57;;
54935;SDS011;40838;50.676;7.838;2023-03-14T14:05:05;26.05;;;14.88;;
54935;SDS011;40838;50.676;7.838;2023-03-14T14:07:32;76.88;;;41.03;;
54935;SDS011;40838;50.676;7.838;2023-03-14T14:09:59;24.55;;;14.38;;
54935;SDS011;40838;50.676;7.838;2023-03-14T14:12:28;28.67;;;14.98;;
54935;SDS011;40838;50.676;7.838;2023-03-14T14:14:58;29.67;;;15.30;;
54935;SDS011;40838;50.676;7.838;2023-03-14T14:17:30;28.40;;;15.25;;
54935;SDS011;40838;50.676;7.838;2023-03-14T14:20:05;29.13;;;14.82;;
54935;SDS011;40838;50.676;7.838;2023-03-14T14:25:14;10.32;;;6.53;;
54935;SDS011;40838;50.676;7.838;2023-03-14T14:27:47;10.93;;;6.70;;
54935;SDS011;40838;50.676;7.838;2023-03-14T14:30:31;9.13;;;5.65;;
54935;SDS011;40838;50.676;7.838;2023-03-14T14:33:17;6.25;;;5.20;;
54935;SDS011;40838;50.676;7.838;2023-03-14T14:35:54;6.53;;;5.45;;
54935;SDS011;40838;50.676;7.838;2023-03-14T14:38:23;8.75;;;7.88;;
54935;SDS011;40838;50.676;7.838;2023-03-14T14:40:51;9.13;;;3.50;;
54935;SDS011;40838;50.676;7.838;2023-03-14T14:43:23;10.32;;;6.13;;
54935;SDS011;40838;50.676;7.838;2023-03-14T14:45:53;11.90;;;6.70;;
54935;SDS011;40838;50.676;7.838;2023-03-14T14:48:25;4.90;;;4.03;;
54935;SDS011;40838;50.676;7.838;2023-03-14T14:50:58;6.07;;;3.70;;
54935;SDS011;40838;50.676;7.838;2023-03-14T14:53:28;4.00;;;2.70;;
54935;SDS011;40838;50.676;7.838;2023-03-14T14:55:57;5.88;;;2.83;;
54935;SDS011;40838;50.676;7.838;2023-03-14T14:58:27;6.78;;;3.65;;
54935;SDS011;40838;50.676;7.838;2023-03-14T15:00:56;4.60;;;3.53;;
54935;SDS011;40838;50.676;7.838;2023-03-14T15:03:33;6.53;;;3.70;;
54935;SDS011;40838;50.676;7.838;2023-03-14T15:06:01;10.13;;;5.70;;
54935;SDS011;40838;50.676;7.838;2023-03-14T15:08:29;4.97;;;3.38;;
54935;SDS011;40838;50.676;7.838;2023-03-14T15:10:57;23.27;;;10.65;;
54935;SDS011;40838;50.676;7.838;2023-03-14T15:13:24;9.52;;;4.38;;
54935;SDS011;40838;50.676;7.838;2023-03-14T15:15:51;7.00;;;4.53;;
54935;SDS011;40838;50.676;7.838;2023-03-14T15:18:21;6.90;;;4.18;;
54935;SDS011;40838;50.676;7.838;2023-03-14T15:20:53;8.20;;;4.65;;
54935;SDS011;40838;50.676;7.838;2023-03-14T15:23:20;7.57;;;3.70;;
54935;SDS011;40838;50.676;7.838;2023-03-14T15:25:47;9.13;;;3.67;;
54935;SDS011;40838;50.676;7.838;2023-03-14T15:28:16;6.00;;;3.00;;